sensor_id;sensor_type;location;lat;lon;timestamp;pressure;altitude;pressure_sealevel;temperature;humidity
7832;BME280;3961;42.058;25.586;2022-09-09T00:02:21;64440.81;;;19.61;81.31
7832;BME280;3961;42.058;25.586;2022-09-09T00:04:55;64444.66;;;19.62;81.17
7832;BME280;3961;42.058;25.586;2022-09-09T00:07:38;64432.78;;;19.49;82.21
7832;BME280;3961;42.058;25.586;2022-09-09T00:16:04;64429.84;;;19.46;82.80
7832;BME280;3961;42.058;25.586;2022-09-09T00:21:13;64447.00;;;19.64;81.87
7832;BME280;3961;42.058;25.586;2022-09-09T00:23:47;64448.16;;;19.65;82.82
7832;BME280;3961;42.058;25.586;2022-09-09T00:26:34;64442.56;;;19.62;82.15
7832;BME280;3961;42.058;25.586;2022-09-09T00:32:11;64443.28;;;19.58;83.07
7832;BME280;3961;42.058;25.586;2022-09-09T00:34:43;64433.13;;;19.47;84.13
7832;BME280;3961;42.058;25.586;2022-09-09T00:37:09;64414.31;;;19.35;85.38
7832;BME280;3961;42.058;25.586;2022-09-09T00:39:42;64394.06;;;19.13;87.32
7832;BME280;3961;42.058;25.586;2022-09-09T00:42:39;64383.78;;;19.06;88.91
7832;BME280;3961;42.058;25.586;2022-09-09T00:48:11;64392.19;;;19.16;88.93
7832;BME280;3961;42.058;25.586;2022-09-09T00:50:56;64378.75;;;19.04;89.41
7832;BME280;3961;42.058;25.586;2022-09-09T00:53:59;64382.03;;;19.05;89.42
7832;BME280;3961;42.058;25.586;2022-09-09T00:56:47;64388.44;;;19.10;89.28
7832;BME280;3961;42.058;25.586;2022-09-09T01:02:18;64364.41;;;18.94;90.14
7832;BME280;3961;42.058;25.586;2022-09-09T01:04:47;64347.88;;;18.77;91.07
7832;BME280;3961;42.058;25.586;2022-09-09T01:07:19;64359.88;;;18.86;91.00
7832;BME280;3961;42.058;25.586;2022-09-09T01:09:57;64368.25;;;18.95;90.33
7832;BME280;3961;42.058;25.586;2022-09-09T01:12:40;64363.81;;;18.94;90.40
7832;BME280;3961;42.058;25.586;2022-09-09T01:15:14;64361.03;;;18.87;90.87
7832;BME280;3961;42.058;25.586;2022-09-09T01:20:23;64346.72;;;18.76;91.77
7832;BME280;3961;42.058;25.586;2022-09-09T01:26:19;64308.81;;;18.43;94.29
7832;BME280;3961;42.058;25.586;2022-09-09T01:28:49;64295.75;;;18.30;95.52
7832;BME280;3961;42.058;25.586;2022-09-09T01:31:19;64287.84;;;18.25;96.18
7832;BME280;3961;42.058;25.586;2022-09-09T01:33:46;64282.00;;;18.20;96.88
7832;BME280;3961;42.058;25.586;2022-09-09T01:36:29;64283.75;;;18.22;97.15
7832;BME280;3961;42.058;25.586;2022-09-09T01:38:58;64293.06;;;18.30;96.67
7832;BME280;3961;42.058;25.586;2022-09-09T01:41:24;64286.31;;;18.26;97.75
7832;BME280;3961;42.058;25.586;2022-09-09T01:43:50;64273.50;;;18.15;98.85
7832;BME280;3961;42.058;25.586;2022-09-09T01:46:17;64277.59;;;18.19;99.06
7832;BME280;3961;42.058;25.586;2022-09-09T01:48:45;64290.53;;;18.25;98.92
7832;BME280;3961;42.058;25.586;2022-09-09T01:51:10;64289.81;;;18.29;98.47
7832;BME280;3961;42.058;25.586;2022-09-09T01:53:36;64297.75;;;18.34;97.12
7832;BME280;3961;42.058;25.586;2022-09-09T02:04:30;64245.78;;;17.93;99.80
7832;BME280;3961;42.058;25.586;2022-09-09T02:07:00;64258.13;;;17.99;99.41
7832;BME280;3961;42.058;25.586;2022-09-09T02:09:26;64238.22;;;17.87;99.95
7832;BME280;3961;42.058;25.586;2022-09-09T02:12:06;64212.34;;;17.62;100.00
7832;BME280;3961;42.058;25.586;2022-09-09T02:14:36;64231.94;;;17.76;100.00
7832;BME280;3961;42.058;25.586;2022-09-09T02:17:11;64216.69;;;17.68;100.00
7832;BME280;3961;42.058;25.586;2022-09-09T02:19:46;64236.25;;;17.83;100.00
7832;BME280;3961;42.058;25.586;2022-09-09T02:22:18;64228.69;;;17.76;100.00
7832;BME280;3961;42.058;25.586;2022-09-09T02:24:45;64233.69;;;17.78;100.00
7832;BME280;3961;42.058;25.586;2022-09-09T02:27:12;64224.97;;;17.70;100.00
7832;BME280;3961;42.058;25.586;2022-09-09T02:29:42;64238.47;;;17.77;100.00
7832;BME280;3961;42.058;25.586;2022-09-09T02:32:12;64250.91;;;17.91;100.00
7832;BME280;3961;42.058;25.586;2022-09-09T02:34:43;64249.97;;;17.92;100.00
7832;BME280;3961;42.058;25.586;2022-09-09T02:37:11;64259.66;;;17.98;100.00
7832;BME280;3961;42.058;25.586;2022-09-09T02:39:38;64265.00;;;18.10;100.00
7832;BME280;3961;42.058;25.586;2022-09-09T02:42:04;64273.88;;;18.13;99.98
7832;BME280;3961;42.058;25.586;2022-09-09T02:44:30;64275.63;;;18.15;99.21
7832;BME280;3961;42.058;25.586;2022-09-09T02:52:14;64285.28;;;18.21;99.05
7832;BME280;3961;42.058;25.586;2022-09-09T02:54:42;64269.78;;;18.09;98.90
7832;BME280;3961;42.058;25.586;2022-09-09T02:57:16;64280.88;;;18.19;98.72
7832;BME280;3961;42.058;25.586;2022-09-09T02:59:44;64289.22;;;18.29;98.76
7832;BME280;3961;42.058;25.586;2022-09-09T03:02:10;64293.88;;;18.33;98.89
7832;BME280;3961;42.058;25.586;2022-09-09T03:04:37;64292.50;;;18.29;99.30
7832;BME280;3961;42.058;25.586;2022-09-09T03:07:03;64292.25;;;18.27;99.52
7832;BME280;3961;42.058;25.586;2022-09-09T03:09:29;64288.28;;;18.30;99.05
7832;BME280;3961;42.058;25.586;2022-09-09T03:11:55;64301.00;;;18.34;98.70
7832;BME280;3961;42.058;25.586;2022-09-09T03:14:22;64285.50;;;18.23;98.47
7832;BME280;3961;42.058;25.586;2022-09-09T03:16:51;64278.75;;;18.20;96.89
7832;BME280;3961;42.058;25.586;2022-09-09T03:19:16;64264.78;;;18.07;97.13
7832;BME280;3961;42.058;25.586;2022-09-09T03:21:44;64262.44;;;18.05;96.70
7832;BME280;3961;42.058;25.586;2022-09-09T03:24:10;64255.47;;;17.99;97.02
7832;BME280;3961;42.058;25.586;2022-09-09T03:26:36;64246.72;;;17.92;95.19
7832;BME280;3961;42.058;25.586;2022-09-09T03:29:03;64222.03;;;17.68;94.62
7832;BME280;3961;42.058;25.586;2022-09-09T03:31:34;64218.19;;;17.67;94.87
7832;BME280;3961;42.058;25.586;2022-09-09T03:34:01;64204.56;;;17.53;95.86
7832;BME280;3961;42.058;25.586;2022-09-09T03:36:27;64183.50;;;17.39;95.45
7832;BME280;3961;42.058;25.586;2022-09-09T03:38:53;64198.75;;;17.48;94.84
7832;BME280;3961;42.058;25.586;2022-09-09T03:41:24;64186.88;;;17.35;95.04
7832;BME280;3961;42.058;25.586;2022-09-09T03:43:50;64185.13;;;17.33;95.21
7832;BME280;3961;42.058;25.586;2022-09-09T03:46:18;64185.59;;;17.38;94.61
7832;BME280;3961;42.058;25.586;2022-09-09T03:48:43;64196.19;;;17.43;93.57
7832;BME280;3961;42.058;25.586;2022-09-09T03:51:09;64180.69;;;17.32;94.87
7832;BME280;3961;42.058;25.586;2022-09-09T03:53:36;64182.69;;;17.36;95.11
7832;BME280;3961;42.058;25.586;2022-09-09T03:56:03;64179.19;;;17.33;95.39
7832;BME280;3961;42.058;25.586;2022-09-09T03:58:29;64182.22;;;17.31;95.18
7832;BME280;3961;42.058;25.586;2022-09-09T04:00:55;64169.63;;;17.22;95.60
7832;BME280;3961;42.058;25.586;2022-09-09T04:03:22;64163.50;;;17.19;96.30
7832;BME280;3961;42.058;25.586;2022-09-09T04:05:53;64150.81;;;17.03;98.42
7832;BME280;3961;42.058;25.586;2022-09-09T04:08:20;64159.19;;;17.13;98.35
7832;BME280;3961;42.058;25.586;2022-09-09T04:10:48;64161.63;;;17.10;98.71
7832;BME280;3961;42.058;25.586;2022-09-09T04:13:14;64158.25;;;17.15;98.25
7832;BME280;3961;42.058;25.586;2022-09-09T04:15:43;64117.88;;;16.77;97.65
7832;BME280;3961;42.058;25.586;2022-09-09T04:18:09;64143.69;;;17.02;97.54
7832;BME280;3961;42.058;25.586;2022-09-09T04:20:34;64181.50;;;17.35;96.59
7832;BME280;3961;42.058;25.586;2022-09-09T04:23:01;64215.03;;;17.62;96.14
7832;BME280;3961;42.058;25.586;2022-09-09T04:25:26;64252.91;;;17.95;93.62
7832;BME280;3961;42.058;25.586;2022-09-09T04:27:56;64284.91;;;18.23;92.29
7832;BME280;3961;42.058;25.586;2022-09-09T04:30:22;64321.03;;;18.54;90.78
7832;BME280;3961;42.058;25.586;2022-09-09T04:32:48;64323.84;;;18.61;88.24
7832;BME280;3961;42.058;25.586;2022-09-09T04:35:13;64331.19;;;18.65;88.44
7832;BME280;3961;42.058;25.586;2022-09-09T04:37:39;64372.00;;;19.01;87.37
7832;BME280;3961;42.058;25.586;2022-09-09T04:40:05;64386.94;;;19.11;87.07
7832;BME280;3961;42.058;25.586;2022-09-09T04:42:35;64384.00;;;19.09;86.54
7832;BME280;3961;42.058;25.586;2022-09-09T04:45:00;64403.25;;;19.26;85.77
7832;BME280;3961;42.058;25.586;2022-09-09T04:47:27;64395.66;;;19.19;86.10
7832;BME280;3961;42.058;25.586;2022-09-09T04:49:52;64405.00;;;19.27;86.13
7832;BME280;3961;42.058;25.586;2022-09-09T04:52:20;64405.22;;;19.30;85.81
7832;BME280;3961;42.058;25.586;2022-09-09T04:54:46;64404.03;;;19.29;85.30
7832;BME280;3961;42.058;25.586;2022-09-09T04:57:12;64405.00;;;19.27;86.35
7832;BME280;3961;42.058;25.586;2022-09-09T04:59:37;64393.78;;;19.22;87.08
7832;BME280;3961;42.058;25.586;2022-09-09T05:02:04;64388.69;;;19.13;87.38
7832;BME280;3961;42.058;25.586;2022-09-09T05:04:30;64393.31;;;19.17;87.15
7832;BME280;3961;42.058;25.586;2022-09-09T05:06:56;64402.06;;;19.25;87.12
7832;BME280;3961;42.058;25.586;2022-09-09T05:09:21;64429.72;;;19.51;86.70
7832;BME280;3961;42.058;25.586;2022-09-09T05:11:47;64434.75;;;19.53;86.95
7832;BME280;3961;42.058;25.586;2022-09-09T05:14:14;64435.91;;;19.54;86.73
7832;BME280;3961;42.058;25.586;2022-09-09T05:16:40;64451.66;;;19.68;86.93
7832;BME280;3961;42.058;25.586;2022-09-09T05:19:05;64452.25;;;19.68;87.17
7832;BME280;3961;42.058;25.586;2022-09-09T05:21:33;64470.13;;;19.82;87.07
7832;BME280;3961;42.058;25.586;2022-09-09T05:23:59;64473.81;;;19.87;87.61
7832;BME280;3961;42.058;25.586;2022-09-09T05:26:26;64470.91;;;19.85;88.06
7832;BME280;3961;42.058;25.586;2022-09-09T05:28:51;64492.50;;;20.03;87.84
7832;BME280;3961;42.058;25.586;2022-09-09T05:31:18;64490.16;;;20.01;88.17
7832;BME280;3961;42.058;25.586;2022-09-09T05:33:45;64496.59;;;20.07;88.05
7832;BME280;3961;42.058;25.586;2022-09-09T05:36:13;64518.53;;;20.24;87.50
7832;BME280;3961;42.058;25.586;2022-09-09T05:38:40;64521.31;;;20.31;87.35
7832;BME280;3961;42.058;25.586;2022-09-09T05:41:06;64528.94;;;20.37;87.41
7832;BME280;3961;42.058;25.586;2022-09-09T05:43:33;64530.91;;;20.41;87.22
7832;BME280;3961;42.058;25.586;2022-09-09T05:48:34;64530.69;;;20.39;87.48
7832;BME280;3961;42.058;25.586;2022-09-09T05:51:01;64525.41;;;20.34;88.22
7832;BME280;3961;42.058;25.586;2022-09-09T05:53:28;64533.38;;;20.39;88.44
7832;BME280;3961;42.058;25.586;2022-09-09T05:56:27;64524.59;;;20.31;88.63
7832;BME280;3961;42.058;25.586;2022-09-09T05:58:54;64530.69;;;20.39;89.08
7832;BME280;3961;42.058;25.586;2022-09-09T06:01:28;64363.59;;;18.91;88.64
7832;BME280;3961;42.058;25.586;2022-09-09T06:03:54;64544.31;;;20.53;88.10
7832;BME280;3961;42.058;25.586;2022-09-09T06:06:27;64555.56;;;20.58;88.01
7832;BME280;3961;42.058;25.586;2022-09-09T06:08:56;64577.19;;;20.77;86.71
7832;BME280;3961;42.058;25.586;2022-09-09T06:11:27;64591.41;;;20.92;86.14
7832;BME280;3961;42.058;25.586;2022-09-09T06:13:54;64630.34;;;21.23;84.71
7832;BME280;3961;42.058;25.586;2022-09-09T06:16:22;64682.34;;;21.68;82.43
7832;BME280;3961;42.058;25.586;2022-09-09T06:18:52;64704.34;;;21.85;81.97
7832;BME280;3961;42.058;25.586;2022-09-09T06:21:21;64724.47;;;22.05;80.74
7832;BME280;3961;42.058;25.586;2022-09-09T06:23:48;64745.88;;;22.21;78.97
7832;BME280;3961;42.058;25.586;2022-09-09T06:26:20;64791.72;;;22.63;77.60
7832;BME280;3961;42.058;25.586;2022-09-09T06:28:47;64802.28;;;22.72;76.74
7832;BME280;3961;42.058;25.586;2022-09-09T06:31:14;64810.47;;;22.79;76.16
7832;BME280;3961;42.058;25.586;2022-09-09T06:33:43;64809.88;;;22.79;75.84
7832;BME280;3961;42.058;25.586;2022-09-09T06:36:18;64809.06;;;22.76;76.32
7832;BME280;3961;42.058;25.586;2022-09-09T06:38:44;64818.66;;;22.87;75.29
7832;BME280;3961;42.058;25.586;2022-09-09T06:41:11;64837.41;;;23.03;75.30
7832;BME280;3961;42.058;25.586;2022-09-09T06:43:37;64850.06;;;23.11;74.39
7832;BME280;3961;42.058;25.586;2022-09-09T06:46:37;64826.06;;;22.91;74.32
7832;BME280;3961;42.058;25.586;2022-09-09T06:48:57;64801.88;;;22.74;75.93
7832;BME280;3961;42.058;25.586;2022-09-09T06:51:33;64836.25;;;23.02;74.71
7832;BME280;3961;42.058;25.586;2022-09-09T06:54:00;64844.63;;;23.11;74.69
7832;BME280;3961;42.058;25.586;2022-09-09T06:56:30;64865.50;;;23.27;73.75
7832;BME280;3961;42.058;25.586;2022-09-09T06:59:00;64853.06;;;23.21;73.08
7832;BME280;3961;42.058;25.586;2022-09-09T07:01:30;64873.34;;;23.36;72.59
7832;BME280;3961;42.058;25.586;2022-09-09T07:03:58;64860.81;;;23.23;73.32
7832;BME280;3961;42.058;25.586;2022-09-09T07:06:35;64887.88;;;23.42;71.92
7832;BME280;3961;42.058;25.586;2022-09-09T07:09:03;64899.25;;;23.54;71.43
7832;BME280;3961;42.058;25.586;2022-09-09T07:11:32;64895.72;;;23.51;71.19
7832;BME280;3961;42.058;25.586;2022-09-09T07:13:59;64923.03;;;23.72;71.28
7832;BME280;3961;42.058;25.586;2022-09-09T07:16:26;64931.31;;;23.87;70.31
7832;BME280;3961;42.058;25.586;2022-09-09T07:18:53;64953.38;;;24.03;70.12
7832;BME280;3961;42.058;25.586;2022-09-09T07:21:23;64954.75;;;24.07;69.85
7832;BME280;3961;42.058;25.586;2022-09-09T07:23:51;64964.50;;;24.13;69.41
7832;BME280;3961;42.058;25.586;2022-09-09T07:26:19;64989.16;;;24.34;68.65
7832;BME280;3961;42.058;25.586;2022-09-09T07:28:46;65009.44;;;24.50;70.46
7832;BME280;3961;42.058;25.586;2022-09-09T07:31:20;65006.72;;;24.50;68.00
7832;BME280;3961;42.058;25.586;2022-09-09T07:33:48;65050.13;;;24.87;70.80
7832;BME280;3961;42.058;25.586;2022-09-09T07:36:21;65081.44;;;25.17;66.55
7832;BME280;3961;42.058;25.586;2022-09-09T07:38:50;65125.97;;;25.48;65.09
7832;BME280;3961;42.058;25.586;2022-09-09T07:41:43;65109.16;;;25.36;63.97
7832;BME280;3961;42.058;25.586;2022-09-09T07:44:14;65137.91;;;25.61;62.10
7832;BME280;3961;42.058;25.586;2022-09-09T07:46:40;65131.69;;;25.58;60.64
7832;BME280;3961;42.058;25.586;2022-09-09T07:49:07;65147.75;;;25.74;61.88
7832;BME280;3961;42.058;25.586;2022-09-09T07:51:35;65177.06;;;25.92;60.89
7832;BME280;3961;42.058;25.586;2022-09-09T07:54:04;65216.59;;;26.29;58.81
7832;BME280;3961;42.058;25.586;2022-09-09T07:56:30;65235.63;;;26.48;59.41
7832;BME280;3961;42.058;25.586;2022-09-09T07:58:57;65247.38;;;26.58;57.67
7832;BME280;3961;42.058;25.586;2022-09-09T08:01:29;65286.38;;;26.94;58.00
7832;BME280;3961;42.058;25.586;2022-09-09T08:03:57;65311.59;;;27.08;56.07
7832;BME280;3961;42.058;25.586;2022-09-09T08:06:32;65307.31;;;27.09;56.09
7832;BME280;3961;42.058;25.586;2022-09-09T08:08:58;65326.16;;;27.26;54.76
7832;BME280;3961;42.058;25.586;2022-09-09T08:11:26;65327.09;;;27.24;55.01
7832;BME280;3961;42.058;25.586;2022-09-09T08:13:53;65286.53;;;26.89;54.79
7832;BME280;3961;42.058;25.586;2022-09-09T08:16:21;65293.22;;;26.97;54.43
7832;BME280;3961;42.058;25.586;2022-09-09T08:18:50;65291.47;;;26.96;54.35
7832;BME280;3961;42.058;25.586;2022-09-09T08:21:19;65281.47;;;26.87;54.62
7832;BME280;3961;42.058;25.586;2022-09-09T08:23:46;65311.00;;;27.08;53.98
7832;BME280;3961;42.058;25.586;2022-09-09T08:26:17;65292.06;;;26.96;54.00
7832;BME280;3961;42.058;25.586;2022-09-09T08:28:44;65325.94;;;27.23;53.84
7832;BME280;3961;42.058;25.586;2022-09-09T08:31:13;65333.78;;;27.32;53.33
7832;BME280;3961;42.058;25.586;2022-09-09T08:33:40;65338.84;;;27.34;53.14
7832;BME280;3961;42.058;25.586;2022-09-09T08:36:08;65356.72;;;27.52;52.63
7832;BME280;3961;42.058;25.586;2022-09-09T08:38:34;65368.88;;;27.60;52.60
7832;BME280;3961;42.058;25.586;2022-09-09T08:52:29;65459.09;;;28.40;50.07
7832;BME280;3961;42.058;25.586;2022-09-09T08:57:54;65449.47;;;28.30;50.50
7832;BME280;3961;42.058;25.586;2022-09-09T09:00:21;65450.25;;;28.33;50.87
7832;BME280;3961;42.058;25.586;2022-09-09T09:05:59;65526.22;;;28.98;48.12
7832;BME280;3961;42.058;25.586;2022-09-09T09:08:43;65500.47;;;28.71;49.38
7832;BME280;3961;42.058;25.586;2022-09-09T09:11:10;65498.75;;;28.77;49.15
7832;BME280;3961;42.058;25.586;2022-09-09T09:19:14;65571.13;;;29.32;48.24
7832;BME280;3961;42.058;25.586;2022-09-09T09:21:42;65606.72;;;29.65;46.95
7832;BME280;3961;42.058;25.586;2022-09-09T09:24:19;65600.81;;;29.60;47.25
7832;BME280;3961;42.058;25.586;2022-09-09T09:26:45;65616.16;;;29.73;47.10
7832;BME280;3961;42.058;25.586;2022-09-09T09:29:16;65596.91;;;29.59;46.64
7832;BME280;3961;42.058;25.586;2022-09-09T09:31:48;65592.59;;;29.53;46.67
7832;BME280;3961;42.058;25.586;2022-09-09T09:34:17;65617.13;;;29.72;46.85
7832;BME280;3961;42.058;25.586;2022-09-09T09:37:15;65647.41;;;30.00;46.01
7832;BME280;3961;42.058;25.586;2022-09-09T09:39:45;65668.25;;;30.21;45.57
7832;BME280;3961;42.058;25.586;2022-09-09T09:42:16;65673.34;;;30.23;44.07
7832;BME280;3961;42.058;25.586;2022-09-09T09:44:43;65686.69;;;30.32;44.43
7832;BME280;3961;42.058;25.586;2022-09-09T09:47:20;65677.66;;;30.29;44.23
7832;BME280;3961;42.058;25.586;2022-09-09T09:49:53;65671.00;;;30.21;44.44
7832;BME280;3961;42.058;25.586;2022-09-09T09:52:26;65680.00;;;30.24;45.01
7832;BME280;3961;42.058;25.586;2022-09-09T09:54:53;65673.34;;;30.23;44.76
7832;BME280;3961;42.058;25.586;2022-09-09T09:57:24;65673.13;;;30.20;44.61
7832;BME280;3961;42.058;25.586;2022-09-09T10:00:00;65655.66;;;30.07;44.21
7832;BME280;3961;42.058;25.586;2022-09-09T10:02:41;65691.41;;;30.36;44.03
7832;BME280;3961;42.058;25.586;2022-09-09T10:05:23;65649.97;;;30.05;44.06
7832;BME280;3961;42.058;25.586;2022-09-09T10:08:05;65664.13;;;30.17;43.81
7832;BME280;3961;42.058;25.586;2022-09-09T10:10:43;65701.84;;;30.50;44.16
7832;BME280;3961;42.058;25.586;2022-09-09T10:19:01;65741.19;;;30.81;43.15
7832;BME280;3961;42.058;25.586;2022-09-09T10:27:20;65705.19;;;30.50;42.53
7832;BME280;3961;42.058;25.586;2022-09-09T10:30:01;65701.06;;;30.47;42.00
7832;BME280;3961;42.058;25.586;2022-09-09T10:32:59;65700.88;;;30.51;41.98
7832;BME280;3961;42.058;25.586;2022-09-09T10:35:35;65720.91;;;30.61;41.71
7832;BME280;3961;42.058;25.586;2022-09-09T10:38:41;65737.84;;;30.81;41.13
7832;BME280;3961;42.058;25.586;2022-09-09T10:41:13;65764.56;;;30.99;41.49
7832;BME280;3961;42.058;25.586;2022-09-09T10:56:40;65786.59;;;31.20;40.55
7832;BME280;3961;42.058;25.586;2022-09-09T10:59:17;65801.38;;;31.33;40.23
7832;BME280;3961;42.058;25.586;2022-09-09T11:01:52;65796.66;;;31.29;40.02
7832;BME280;3961;42.058;25.586;2022-09-09T11:04:35;65806.47;;;31.35;40.06
7832;BME280;3961;42.058;25.586;2022-09-09T11:07:10;65792.50;;;31.25;39.28
7832;BME280;3961;42.058;25.586;2022-09-09T11:09:47;65798.22;;;31.28;40.46
7832;BME280;3961;42.058;25.586;2022-09-09T11:12:18;65779.75;;;31.17;39.54
7832;BME280;3961;42.058;25.586;2022-09-09T11:14:59;65765.75;;;31.00;39.97
7832;BME280;3961;42.058;25.586;2022-09-09T11:18:04;65772.22;;;31.05;40.02
7832;BME280;3961;42.058;25.586;2022-09-09T11:20:32;65766.53;;;31.03;40.82
7832;BME280;3961;42.058;25.586;2022-09-09T11:23:13;65768.31;;;31.04;39.52
7832;BME280;3961;42.058;25.586;2022-09-09T11:25:52;65789.56;;;31.23;40.99
7832;BME280;3961;42.058;25.586;2022-09-09T11:31:21;65799.97;;;31.29;39.35
7832;BME280;3961;42.058;25.586;2022-09-09T11:40:00;65838.78;;;31.67;38.38
7832;BME280;3961;42.058;25.586;2022-09-09T11:42:32;65843.69;;;31.67;38.66
7832;BME280;3961;42.058;25.586;2022-09-09T11:45:09;65835.22;;;31.64;38.60
7832;BME280;3961;42.058;25.586;2022-09-09T11:47:36;65851.38;;;31.73;39.51
7832;BME280;3961;42.058;25.586;2022-09-09T11:50:29;65864.53;;;31.87;38.61
7832;BME280;3961;42.058;25.586;2022-09-09T11:55:39;65869.44;;;31.87;38.13
7832;BME280;3961;42.058;25.586;2022-09-09T12:00:39;65885.59;;;32.03;37.95
7832;BME280;3961;42.058;25.586;2022-09-09T12:06:19;65864.34;;;31.85;39.59
7832;BME280;3961;42.058;25.586;2022-09-09T12:08:54;65867.88;;;31.88;40.78
7832;BME280;3961;42.058;25.586;2022-09-09T12:11:26;65858.66;;;31.82;39.82
7832;BME280;3961;42.058;25.586;2022-09-09T12:13:57;65821.63;;;31.53;40.30
7832;BME280;3961;42.058;25.586;2022-09-09T12:16:33;65827.91;;;31.56;40.86
7832;BME280;3961;42.058;25.586;2022-09-09T12:24:48;65814.94;;;31.45;42.39
7832;BME280;3961;42.058;25.586;2022-09-09T12:27:32;65779.16;;;31.16;43.28
7832;BME280;3961;42.058;25.586;2022-09-09T12:30:11;65803.53;;;31.32;43.50
7832;BME280;3961;42.058;25.586;2022-09-09T12:32:39;65764.38;;;31.03;43.17
7832;BME280;3961;42.058;25.586;2022-09-09T12:35:15;65757.47;;;30.93;43.99
7832;BME280;3961;42.058;25.586;2022-09-09T12:37:52;65757.09;;;30.95;44.11
7832;BME280;3961;42.058;25.586;2022-09-09T12:40:32;65753.94;;;30.90;44.48
7832;BME280;3961;42.058;25.586;2022-09-09T12:43:01;65746.69;;;30.88;45.02
7832;BME280;3961;42.058;25.586;2022-09-09T12:45:29;65757.09;;;30.95;44.68
7832;BME280;3961;42.058;25.586;2022-09-09T12:50:33;65763.78;;;31.03;44.06
7832;BME280;3961;42.058;25.586;2022-09-09T12:53:26;65775.97;;;31.11;43.04
7832;BME280;3961;42.058;25.586;2022-09-09T12:56:04;65785.84;;;31.17;43.57
7832;BME280;3961;42.058;25.586;2022-09-09T12:58:31;65768.91;;;31.05;43.63
7832;BME280;3961;42.058;25.586;2022-09-09T13:00:59;65724.28;;;30.69;43.84
7832;BME280;3961;42.058;25.586;2022-09-09T13:03:26;65733.50;;;30.74;43.82
7832;BME280;3961;42.058;25.586;2022-09-09T13:05:53;65729.59;;;30.73;44.34
7832;BME280;3961;42.058;25.586;2022-09-09T13:08:19;65744.34;;;30.86;44.53
7832;BME280;3961;42.058;25.586;2022-09-09T13:11:04;65764.97;;;31.04;43.84
7832;BME280;3961;42.058;25.586;2022-09-09T13:13:36;65763.59;;;31.00;43.33
7832;BME280;3961;42.058;25.586;2022-09-09T13:16:03;65757.09;;;30.95;43.50
7832;BME280;3961;42.058;25.586;2022-09-09T13:18:33;65750.59;;;30.89;42.67
7832;BME280;3961;42.058;25.586;2022-09-09T13:21:00;65712.84;;;30.57;43.23
7832;BME280;3961;42.058;25.586;2022-09-09T13:23:34;65740.38;;;30.78;43.15
7832;BME280;3961;42.058;25.586;2022-09-09T13:26:03;65735.06;;;30.73;42.76
7832;BME280;3961;42.058;25.586;2022-09-09T13:28:31;65742.34;;;30.82;43.10
7832;BME280;3961;42.058;25.586;2022-09-09T13:31:04;65748.25;;;30.87;43.27
7832;BME280;3961;42.058;25.586;2022-09-09T13:33:35;65750.00;;;30.89;42.22
7832;BME280;3961;42.058;25.586;2022-09-09T13:36:11;65763.97;;;30.98;42.12
7832;BME280;3961;42.058;25.586;2022-09-09T13:41:22;65739.41;;;30.80;42.44
7832;BME280;3961;42.058;25.586;2022-09-09T13:43:49;65768.09;;;31.02;42.57
7832;BME280;3961;42.058;25.586;2022-09-09T13:46:32;65764.78;;;31.01;42.30
7832;BME280;3961;42.058;25.586;2022-09-09T13:49:00;65733.31;;;30.72;41.76
7832;BME280;3961;42.058;25.586;2022-09-09T13:51:37;65742.94;;;30.83;41.62
7832;BME280;3961;42.058;25.586;2022-09-09T13:54:08;65746.50;;;30.86;41.94
7832;BME280;3961;42.058;25.586;2022-09-09T13:56:35;65759.44;;;30.97;41.75
7832;BME280;3961;42.058;25.586;2022-09-09T13:59:02;65741.59;;;30.86;41.71
7832;BME280;3961;42.058;25.586;2022-09-09T14:01:28;65755.91;;;30.94;41.55
7832;BME280;3961;42.058;25.586;2022-09-09T14:03:54;65737.84;;;30.81;40.79
7832;BME280;3961;42.058;25.586;2022-09-09T14:06:20;65748.84;;;30.88;41.38
7832;BME280;3961;42.058;25.586;2022-09-09T14:08:50;65750.81;;;30.92;41.55
7832;BME280;3961;42.058;25.586;2022-09-09T14:11:16;65765.16;;;30.99;40.98
7832;BME280;3961;42.058;25.586;2022-09-09T14:13:42;65773.41;;;31.06;42.18
7832;BME280;3961;42.058;25.586;2022-09-09T14:16:08;65780.72;;;31.15;41.02
7832;BME280;3961;42.058;25.586;2022-09-09T14:18:35;65784.66;;;31.16;40.57
7832;BME280;3961;42.058;25.586;2022-09-09T14:21:00;65754.94;;;30.95;41.03
7832;BME280;3961;42.058;25.586;2022-09-09T14:23:27;65766.31;;;31.00;41.00
7832;BME280;3961;42.058;25.586;2022-09-09T14:25:53;65762.78;;;30.97;41.21
7832;BME280;3961;42.058;25.586;2022-09-09T14:28:18;65767.50;;;31.01;40.86
7832;BME280;3961;42.058;25.586;2022-09-09T14:30:44;65765.94;;;31.02;40.63
7832;BME280;3961;42.058;25.586;2022-09-09T14:33:12;65753.16;;;30.94;40.21
7832;BME280;3961;42.058;25.586;2022-09-09T14:35:38;65741.78;;;30.82;41.08
7832;BME280;3961;42.058;25.586;2022-09-09T14:38:07;65744.13;;;30.84;41.00
7832;BME280;3961;42.058;25.586;2022-09-09T14:40:35;65732.91;;;30.74;41.35
7832;BME280;3961;42.058;25.586;2022-09-09T14:43:01;65732.91;;;30.74;41.01
7832;BME280;3961;42.058;25.586;2022-09-09T14:45:27;65728.78;;;30.70;41.05
7832;BME280;3961;42.058;25.586;2022-09-09T14:47:53;65707.53;;;30.52;40.74
7832;BME280;3961;42.058;25.586;2022-09-09T14:50:20;65697.31;;;30.41;41.17
7832;BME280;3961;42.058;25.586;2022-09-09T14:52:45;65693.97;;;30.40;41.30
7832;BME280;3961;42.058;25.586;2022-09-09T14:55:12;65691.22;;;30.40;41.54
7832;BME280;3961;42.058;25.586;2022-09-09T14:57:38;65699.66;;;30.43;42.08
7832;BME280;3961;42.058;25.586;2022-09-09T15:00:06;65684.53;;;30.32;41.52
7832;BME280;3961;42.058;25.586;2022-09-09T15:02:32;65704.59;;;30.50;41.48
7832;BME280;3961;42.058;25.586;2022-09-09T15:04:58;65695.75;;;30.42;41.81
7832;BME280;3961;42.058;25.586;2022-09-09T15:07:26;65694.16;;;30.36;41.52
7832;BME280;3961;42.058;25.586;2022-09-09T15:09:54;65684.53;;;30.32;41.83
7832;BME280;3961;42.058;25.586;2022-09-09T15:12:20;65678.22;;;30.22;41.79
7832;BME280;3961;42.058;25.586;2022-09-09T15:14:46;65667.44;;;30.18;42.08
7832;BME280;3961;42.058;25.586;2022-09-09T15:17:12;65672.75;;;30.22;41.10
7832;BME280;3961;42.058;25.586;2022-09-09T15:19:39;65673.34;;;30.23;42.10
7832;BME280;3961;42.058;25.586;2022-09-09T15:22:05;65665.31;;;30.18;41.26
7832;BME280;3961;42.058;25.586;2022-09-09T15:24:34;65659.78;;;30.11;41.09